Airfield :
LOGIN :

Register | Disclaimer

   EN    FR    IT 

 










Legend :    VFR   Marginal VFR   IFR   Intensive IFR   Very Intensive IFR
Visi :
Ceiling :
>= 8 km
>= 3000ft
5 to 8 km
1000 to 3000 ft
1500m to 5 km
500 to 1000 ft
800 to 1500m
200 to 500 ft
< 800m
< 200 ft
Symbols :   Thunderstorms  Fog  Heavy snow  Heavy precipitations  Wind > 20 kt
SIGMETs :     Misc.  Thunderstorms  Icing  Turbulence  Mountain Waves  Volcanic Ashes







- Airport Elevation : 1470 ft
- IATA code : KLU


LOWK - Klagenfurt

CURRENT METAR :
  • 301220Z VRB04KT 9999 FEW060 20/02 Q1025 NOSIG

EXPIRED METARs :
  • 301150Z 05004KT 010V110 9999 FEW060 20/02 Q1026 NOSIG
  • 301120Z VRB04KT 9999 FEW060 19/02 Q1026 NOSIG
  • 301050Z VRB04KT 9999 FEW060 18/03 Q1027 NOSIG
  • 301020Z VRB02KT 9999 FEW060 18/05 Q1027 NOSIG
  • 300950Z 31003KT 260V050 9999 FEW060 17/04 Q1027 NOSIG

TAF TAF LOWK
Valid from the 30 at 12:00 until the 31 at 12:00 UTC


301115Z 3012/3112 VRB02KT 9999 FEW060 TX19/3015Z TN07/3106Z
TEMPO 3012/3017 10006KT
No reported NOTAMs for that airfield.



MET'MAP, your aeronautical weather chart ! - Copyright ORBIFLY December 2007 - Disclaimer

ORBIFLY MET'MAP TEAM :

Programming & Development : Alexandra Zaïnal
Concept & Development : Baudouin d'Aumeries
Co-Development & Prog : Marc-Olivier Méhu
Technical & hardware support : Manuel Goepfert

Contact : metmap@orbifly.com




SOURCES & CREDITS :

   NOAA